Time;durP1;ratioP1;P1;durP2;ratioP2;P2;SDS_P1;SDS_P2;PMS_P1;PMS_P2;Temp;Humidity;BMP_temperature;BMP_pressure;BME280_temperature;BME280_humidity;BME280_pressure;Samples;Min_cycle;Max_cycle;Signal;HPM_P1;HPM_P2
2023/08/14 00:01:51;;;;;;;;;;;;;;;16.33;48.70;95632.44;4978633;28;20251;-70
2023/08/14 00:04:17;;;;;;;;;;;;;;;16.37;48.43;95635.53;4976768;28;19926;-68
2023/08/14 00:06:42;;;;;;;;;;;;;;;16.46;47.92;95642.31;4978821;28;19983;-69
2023/08/14 00:09:07;;;;;;;;;;;;;;;16.46;48.46;95646.88;4979071;28;20474;-69
2023/08/14 00:11:32;;;;;;;;;;;;;;;16.52;47.37;95633.38;4975142;28;20139;-70
2023/08/14 00:13:58;;;;;;;;;;;;;;;16.46;48.45;95636.94;4978834;28;19930;-69
2023/08/14 00:16:23;;;;;;;;;;;;;;;16.24;48.96;95634.53;4977770;28;19961;-70
2023/08/14 00:18:49;;;;;;;;;;;;;;;16.20;48.87;95629.81;4978692;28;19930;-69
2023/08/14 00:21:14;;;;;;;;;;;;;;;16.23;48.58;95632.91;4975717;28;19925;-69
2023/08/14 00:23:39;;;;;;;;;;;;;;;16.27;48.21;95630.59;4979953;28;19932;-70
2023/08/14 00:26:04;;;;;;;;;;;;;;;16.24;48.05;95629.16;4976770;28;19980;-70
2023/08/14 00:28:30;;;;;;;;;;;;;;;16.32;47.27;95628.09;5010388;28;19921;-69
2023/08/14 00:30:55;;;;;;;;;;;;;;;16.37;47.29;95631.00;4977568;28;19921;-69
2023/08/14 00:33:20;;;;;;;;;;;;;;;16.36;47.33;95623.97;4978302;28;19938;-70
2023/08/14 00:35:45;;;;;;;;;;;;;;;16.32;47.41;95625.41;4977211;28;19922;-70
2023/08/14 00:38:11;;;;;;;;;;;;;;;16.28;47.56;95618.81;4973507;28;19925;-68
2023/08/14 00:40:36;;;;;;;;;;;;;;;16.26;47.85;95615.53;4978194;28;20020;-69
2023/08/14 00:43:01;;;;;;;;;;;;;;;16.19;48.05;95609.38;4978456;28;19960;-69
2023/08/14 00:45:26;;;;;;;;;;;;;;;16.20;47.41;95611.84;4978352;28;19926;-70
2023/08/14 00:47:52;;;;;;;;;;;;;;;15.72;49.07;95611.22;4976716;28;19976;-70
2023/08/14 00:50:17;;;;;;;;;;;;;;;15.67;48.70;95610.19;4978280;28;19918;-70
2023/08/14 00:52:46;;;;;;;;;;;;;;;15.73;49.20;95612.84;4976927;28;20604;-69
2023/08/14 00:55:13;;;;;;;;;;;;;;;15.84;48.42;95613.25;4977739;28;19917;-69
2023/08/14 00:57:38;;;;;;;;;;;;;;;15.87;48.53;95612.78;4977579;28;20200;-70
2023/08/14 01:00:05;;;;;;;;;;;;;;;15.92;48.29;95604.94;4975902;28;19918;-70
2023/08/14 01:02:30;;;;;;;;;;;;;;;15.95;48.35;95620.59;4978179;28;19922;-70
2023/08/14 01:04:55;;;;;;;;;;;;;;;15.99;47.80;95616.47;4976174;28;19936;-70
2023/08/14 01:07:20;;;;;;;;;;;;;;;15.95;47.57;95607.19;4977061;28;19932;-70
2023/08/14 01:09:46;;;;;;;;;;;;;;;15.85;48.26;95614.88;4977766;28;19936;-70
2023/08/14 01:12:12;;;;;;;;;;;;;;;15.79;48.37;95615.72;4976568;28;19925;-70
2023/08/14 01:14:37;;;;;;;;;;;;;;;15.78;48.13;95614.91;4977927;28;19921;-70
2023/08/14 01:17:03;;;;;;;;;;;;;;;15.79;47.82;95613.03;4975600;28;19926;-69
2023/08/14 01:19:29;;;;;;;;;;;;;;;15.78;47.20;95608.69;4968142;28;19921;-70
2023/08/14 01:22:04;;;;;;;;;;;;;;;15.77;47.65;95610.56;4971743;28;20178;-70
2023/08/14 01:24:38;;;;;;;;;;;;;;;15.70;48.26;95609.75;4975676;28;19930;-70
2023/08/14 01:27:03;;;;;;;;;;;;;;;15.68;48.03;95604.63;4973873;28;20016;-70
2023/08/14 01:29:33;;;;;;;;;;;;;;;15.59;47.96;95603.19;4975459;28;20566;-70
2023/08/14 01:31:58;;;;;;;;;;;;;;;15.55;47.82;95600.06;4975716;28;19922;-70
2023/08/14 01:34:23;;;;;;;;;;;;;;;15.52;48.10;95605.03;4977234;28;20139;-70
2023/08/14 01:36:50;;;;;;;;;;;;;;;15.38;48.43;95594.34;4973675;28;19933;-70
2023/08/14 01:39:16;;;;;;;;;;;;;;;15.28;48.94;95586.72;4974068;28;19948;-70
2023/08/14 01:41:43;;;;;;;;;;;;;;;15.21;48.89;95583.22;4973080;28;20497;-69
2023/08/14 01:44:10;;;;;;;;;;;;;;;15.21;48.45;95583.22;4972969;28;19928;-69
2023/08/14 01:46:35;;;;;;;;;;;;;;;15.24;48.31;95593.53;4973467;28;20784;-70
2023/08/14 01:49:01;;;;;;;;;;;;;;;15.19;48.53;95588.78;4972792;28;20134;-70
2023/08/14 01:51:26;;;;;;;;;;;;;;;15.17;48.34;95596.22;4970029;28;19914;-70
2023/08/14 01:53:52;;;;;;;;;;;;;;;15.10;48.41;95595.41;4970461;28;20167;-70
2023/08/14 01:56:17;;;;;;;;;;;;;;;15.01;48.28;95592.09;4973325;28;19926;-69
2023/08/14 01:58:42;;;;;;;;;;;;;;;15.03;47.72;95595.38;4968837;28;19999;-70
2023/08/14 02:01:07;;;;;;;;;;;;;;;15.01;48.46;95589.41;4969398;28;20205;-70
2023/08/14 02:03:33;;;;;;;;;;;;;;;14.91;48.22;95587.16;4977519;28;19922;-70
2023/08/14 02:05:58;;;;;;;;;;;;;;;14.87;48.46;95577.88;4976152;28;20379;-70
2023/08/14 02:08:23;;;;;;;;;;;;;;;14.84;48.90;95586.31;4976721;28;20515;-70
2023/08/14 02:10:48;;;;;;;;;;;;;;;14.81;49.15;95578.69;4976055;28;20180;-70
2023/08/14 02:13:14;;;;;;;;;;;;;;;14.82;49.03;95569.66;4974987;28;20021;-70
2023/08/14 02:15:39;;;;;;;;;;;;;;;14.88;48.76;95570.66;4975840;28;19952;-70
2023/08/14 02:18:04;;;;;;;;;;;;;;;14.95;48.72;95566.94;4972166;28;19965;-70
2023/08/14 02:20:29;;;;;;;;;;;;;;;15.01;48.81;95569.81;4975088;28;19926;-70
2023/08/14 02:22:55;;;;;;;;;;;;;;;15.05;49.24;95563.00;4975497;28;19930;-70
2023/08/14 02:25:20;;;;;;;;;;;;;;;15.06;49.03;95560.13;4974605;28;19926;-70
2023/08/14 02:27:45;;;;;;;;;;;;;;;15.13;48.34;95553.94;4974248;28;19926;-70
2023/08/14 02:30:10;;;;;;;;;;;;;;;15.24;48.13;95555.97;4973674;28;19934;-70
2023/08/14 02:32:36;;;;;;;;;;;;;;;15.22;48.57;95558.88;4972201;28;19940;-70
2023/08/14 02:35:01;;;;;;;;;;;;;;;15.23;48.31;95546.31;4976192;28;20421;-69
2023/08/14 02:37:26;;;;;;;;;;;;;;;15.23;48.29;95548.97;4972642;28;19925;-70
2023/08/14 02:39:51;;;;;;;;;;;;;;;15.27;47.84;95544.00;4976125;28;20418;-70
2023/08/14 02:42:17;;;;;;;;;;;;;;;15.22;48.06;95537.41;4976680;28;19918;-70
2023/08/14 02:44:42;;;;;;;;;;;;;;;15.19;47.99;95535.16;4970286;28;19933;-69
2023/08/14 02:47:07;;;;;;;;;;;;;;;15.12;48.21;95537.03;4977581;28;19917;-70
2023/08/14 02:49:33;;;;;;;;;;;;;;;15.09;47.97;95532.06;4975825;28;19926;-70
2023/08/14 02:51:58;;;;;;;;;;;;;;;15.01;48.19;95535.81;4972457;28;20403;-70
2023/08/14 02:54:24;;;;;;;;;;;;;;;14.94;48.47;95535.81;4975270;28;19965;-70
2023/08/14 02:56:49;;;;;;;;;;;;;;;14.89;48.69;95530.25;4974460;28;20004;-70
2023/08/14 02:59:14;;;;;;;;;;;;;;;14.80;48.61;95531.50;4977421;28;20291;-69
2023/08/14 03:01:40;;;;;;;;;;;;;;;14.79;48.28;95535.22;4975324;28;20096;-70
2023/08/14 03:04:05;;;;;;;;;;;;;;;14.74;48.43;95543.88;4974571;28;19930;-70
2023/08/14 03:06:31;;;;;;;;;;;;;;;14.68;48.38;95537.44;4976024;28;19922;-70
2023/08/14 03:08:57;;;;;;;;;;;;;;;14.65;48.51;95531.69;4976512;28;20076;-70
2023/08/14 03:11:22;;;;;;;;;;;;;;;14.58;48.64;95529.81;4974496;28;20590;-70
2023/08/14 03:13:47;;;;;;;;;;;;;;;14.57;48.36;95532.69;4991968;28;20375;-70
2023/08/14 03:16:12;;;;;;;;;;;;;;;14.54;48.40;95541.97;4996504;28;19921;-70
2023/08/14 03:18:37;;;;;;;;;;;;;;;14.50;48.23;95534.53;4996682;28;19925;-70
2023/08/14 03:21:03;;;;;;;;;;;;;;;14.44;48.08;95542.38;4995150;28;20517;-70
2023/08/14 03:23:28;;;;;;;;;;;;;;;14.39;48.04;95536.81;4999183;28;20358;-69
2023/08/14 03:25:53;;;;;;;;;;;;;;;14.32;48.05;95536.78;4999166;28;19925;-70
2023/08/14 03:28:18;;;;;;;;;;;;;;;14.31;48.04;95532.47;4998958;28;19961;-69
2023/08/14 03:30:44;;;;;;;;;;;;;;;14.23;47.87;95529.16;4998261;28;20018;-68
2023/08/14 03:33:09;;;;;;;;;;;;;;;14.24;48.24;95537.00;4999710;28;19965;-69
2023/08/14 03:35:34;;;;;;;;;;;;;;;14.19;48.70;95534.94;5000173;28;20028;-69
2023/08/14 03:37:59;;;;;;;;;;;;;;;14.17;48.35;95526.28;4997995;28;19925;-68
2023/08/14 03:40:25;;;;;;;;;;;;;;;14.13;48.25;95530.38;4999602;28;20358;-69
2023/08/14 03:42:50;;;;;;;;;;;;;;;14.14;48.33;95526.69;4998968;28;20287;-67
2023/08/14 03:45:15;;;;;;;;;;;;;;;14.13;48.37;95526.88;5005770;28;19987;-68
2023/08/14 03:47:40;;;;;;;;;;;;;;;14.11;48.77;95527.06;5003999;28;19932;-69
2023/08/14 03:50:06;;;;;;;;;;;;;;;14.11;48.80;95516.38;4980980;28;20023;-68
2023/08/14 03:52:31;;;;;;;;;;;;;;;14.11;48.82;95516.38;4978898;28;19937;-69
2023/08/14 03:54:56;;;;;;;;;;;;;;;14.12;48.74;95517.19;4978773;28;19975;-69
2023/08/14 03:57:21;;;;;;;;;;;;;;;14.15;48.90;95508.78;4990979;28;19925;-69
2023/08/14 03:59:47;;;;;;;;;;;;;;;14.17;48.94;95509.38;4999085;28;19925;-68
2023/08/14 04:02:12;;;;;;;;;;;;;;;14.19;48.76;95510.84;4997128;28;19930;-68
2023/08/14 04:04:37;;;;;;;;;;;;;;;14.25;48.92;95509.22;4997395;28;20456;-69
2023/08/14 04:07:03;;;;;;;;;;;;;;;14.34;48.57;95507.97;4999543;28;19973;-69
2023/08/14 04:09:28;;;;;;;;;;;;;;;14.45;48.57;95517.25;4998336;28;20465;-69
2023/08/14 04:11:53;;;;;;;;;;;;;;;14.59;48.43;95517.25;4994663;28;20109;-68
2023/08/14 04:14:18;;;;;;;;;;;;;;;14.67;48.22;95506.34;4998752;28;19928;-69
2023/08/14 04:16:43;;;;;;;;;;;;;;;14.77;48.23;95508.63;4995471;28;19925;-69
2023/08/14 04:19:15;;;;;;;;;;;;;;;14.89;47.91;95516.03;4998208;28;20416;-68
2023/08/14 04:21:40;;;;;;;;;;;;;;;15.01;48.07;95516.22;4995488;28;20060;-69
2023/08/14 04:24:06;;;;;;;;;;;;;;;15.06;48.23;95514.56;4998494;28;20382;-69
2023/08/14 04:26:31;;;;;;;;;;;;;;;15.20;47.97;95509.19;4997186;28;19921;-69
2023/08/14 04:28:56;;;;;;;;;;;;;;;15.26;47.84;95508.31;4998431;28;20031;-70
2023/08/14 04:31:22;;;;;;;;;;;;;;;15.29;47.92;95499.84;4996176;28;19961;-69
2023/08/14 04:33:47;;;;;;;;;;;;;;;15.38;47.61;95500.44;4997800;28;19929;-68
2023/08/14 04:36:12;;;;;;;;;;;;;;;15.44;47.43;95496.09;4997663;28;19925;-69
2023/08/14 04:38:37;;;;;;;;;;;;;;;15.45;47.55;95495.88;4998645;28;20139;-69
2023/08/14 04:41:02;;;;;;;;;;;;;;;15.56;47.51;95505.16;4997519;28;19944;-70
2023/08/14 04:43:31;;;;;;;;;;;;;;;15.35;47.99;95500.88;4997818;28;20549;-70
2023/08/14 04:45:56;;;;;;;;;;;;;;;15.39;47.64;95506.63;4996304;28;19965;-70
2023/08/14 04:48:22;;;;;;;;;;;;;;;15.54;47.53;95509.06;4996642;28;20043;-69
2023/08/14 04:50:47;;;;;;;;;;;;;;;15.67;47.80;95508.22;4992682;28;19948;-70
2023/08/14 04:53:12;;;;;;;;;;;;;;;15.81;47.88;95511.66;4997428;28;19964;-69
2023/08/14 04:55:37;;;;;;;;;;;;;;;15.93;47.82;95511.78;4997251;28;19964;-69
2023/08/14 04:58:03;;;;;;;;;;;;;;;16.02;47.77;95510.53;4974424;28;19929;-70
2023/08/14 05:00:28;;;;;;;;;;;;;;;16.12;47.68;95505.47;4977814;28;19926;-70
2023/08/14 05:02:53;;;;;;;;;;;;;;;16.21;47.75;95505.22;4977861;28;19938;-70
2023/08/14 05:05:19;;;;;;;;;;;;;;;16.35;46.78;95496.06;4989157;28;20724;-70
2023/08/14 05:07:44;;;;;;;;;;;;;;;16.39;46.42;95504.53;4998164;28;19925;-69
2023/08/14 05:10:10;;;;;;;;;;;;;;;16.42;46.04;95504.06;4996576;28;19967;-70
2023/08/14 05:12:35;;;;;;;;;;;;;;;16.36;46.38;95503.06;4995141;28;19968;-70
2023/08/14 05:15:00;;;;;;;;;;;;;;;16.29;46.61;95504.97;4998158;28;19960;-70
2023/08/14 05:17:25;;;;;;;;;;;;;;;16.32;46.35;95512.56;4991802;28;19999;-70
2023/08/14 05:19:51;;;;;;;;;;;;;;;16.20;46.59;95517.00;4997990;28;19921;-70
2023/08/14 05:22:16;;;;;;;;;;;;;;;16.12;46.88;95513.53;4995928;28;19965;-70
2023/08/14 05:24:41;;;;;;;;;;;;;;;16.30;46.82;95516.53;4996536;28;19968;-70
2023/08/14 05:27:06;;;;;;;;;;;;;;;16.38;46.61;95516.28;4995923;28;19930;-70
2023/08/14 05:29:32;;;;;;;;;;;;;;;16.48;46.45;95527.38;4997048;28;19957;-70
2023/08/14 05:31:57;;;;;;;;;;;;;;;16.59;47.03;95525.03;4996501;28;19956;-70
2023/08/14 05:34:22;;;;;;;;;;;;;;;16.70;47.10;95535.09;4997209;28;19928;-70
2023/08/14 05:36:48;;;;;;;;;;;;;;;16.80;46.76;95526.53;4997253;28;19925;-70
2023/08/14 05:39:13;;;;;;;;;;;;;;;16.93;46.86;95527.44;4997829;28;20012;-70
2023/08/14 05:41:38;;;;;;;;;;;;;;;17.02;46.69;95526.94;4997325;28;19949;-69
2023/08/14 05:44:05;;;;;;;;;;;;;;;17.11;46.89;95524.81;4996758;28;20102;-70
2023/08/14 05:46:30;;;;;;;;;;;;;;;17.18;46.62;95529.31;4997238;28;19979;-70
2023/08/14 05:48:55;;;;;;;;;;;;;;;17.32;46.59;95529.97;4995724;28;20227;-69
2023/08/14 05:51:21;;;;;;;;;;;;;;;17.51;46.40;95534.31;4995968;28;20362;-70
2023/08/14 05:53:46;;;;;;;;;;;;;;;17.70;46.24;95537.00;4997313;28;20503;-71
2023/08/14 05:56:11;;;;;;;;;;;;;;;17.94;46.26;95536.34;4997295;28;19929;-70
2023/08/14 05:58:36;;;;;;;;;;;;;;;18.14;46.58;95530.66;4997463;28;19931;-70
2023/08/14 06:01:02;;;;;;;;;;;;;;;18.42;45.87;95532.75;4996884;28;20548;-71
2023/08/14 06:03:28;;;;;;;;;;;;;;;18.72;46.00;95531.09;4995907;28;19988;-70
2023/08/14 06:05:53;;;;;;;;;;;;;;;18.91;45.56;95533.69;4996152;28;19926;-71
2023/08/14 06:08:18;;;;;;;;;;;;;;;19.07;44.79;95522.19;4994338;28;19928;-69
2023/08/14 06:10:43;;;;;;;;;;;;;;;19.24;44.50;95516.06;4994811;28;20040;-69
2023/08/14 06:13:09;;;;;;;;;;;;;;;19.32;43.64;95515.75;4994404;28;19972;-71
2023/08/14 06:15:34;;;;;;;;;;;;;;;19.35;43.59;95521.72;4995332;28;19961;-70
2023/08/14 06:17:59;;;;;;;;;;;;;;;19.41;43.24;95526.19;4992462;28;19930;-71
2023/08/14 06:20:24;;;;;;;;;;;;;;;19.52;42.37;95535.31;4987359;28;20191;-69
2023/08/14 06:22:50;;;;;;;;;;;;;;;19.64;42.45;95535.31;4991130;28;19964;-71
2023/08/14 06:25:15;;;;;;;;;;;;;;;19.81;41.92;95525.38;4993693;28;19979;-69
2023/08/14 06:27:40;;;;;;;;;;;;;;;19.92;41.97;95521.00;4996655;28;20307;-71
2023/08/14 06:30:09;;;;;;;;;;;;;;;19.97;41.38;95528.41;4996699;28;19921;-71
2023/08/14 06:32:35;;;;;;;;;;;;;;;20.13;41.21;95539.50;4995301;28;19960;-71
2023/08/14 06:35:00;;;;;;;;;;;;;;;20.22;40.63;95541.59;4996923;28;20326;-70
2023/08/14 06:37:25;;;;;;;;;;;;;;;20.21;40.37;95544.53;4995855;28;20129;-69
2023/08/14 06:39:50;;;;;;;;;;;;;;;20.32;40.02;95530.13;4994865;28;20537;-70
2023/08/14 06:42:16;;;;;;;;;;;;;;;20.16;41.04;95509.31;4992145;28;19969;-71
2023/08/14 06:44:41;;;;;;;;;;;;;;;20.54;40.54;95518.63;4996300;28;19922;-69
2023/08/14 06:47:06;;;;;;;;;;;;;;;20.90;39.30;95509.47;4996764;28;20021;-69
2023/08/14 06:49:31;;;;;;;;;;;;;;;20.79;38.81;95517.41;4995926;28;20765;-70
2023/08/14 06:51:57;;;;;;;;;;;;;;;21.04;39.08;95512.66;4991210;28;19928;-69
2023/08/14 06:54:22;;;;;;;;;;;;;;;21.37;38.46;95510.97;4994115;28;20017;-70
2023/08/14 06:56:47;;;;;;;;;;;;;;;21.56;37.99;95529.63;4995649;28;19987;-71
2023/08/14 06:59:12;;;;;;;;;;;;;;;21.75;37.54;95527.41;4998167;28;19986;-70
2023/08/14 07:01:38;;;;;;;;;;;;;;;21.72;35.92;95528.75;4999478;28;20422;-69
2023/08/14 07:04:04;;;;;;;;;;;;;;;21.37;36.76;95528.03;4997864;28;19963;-69
2023/08/14 07:06:29;;;;;;;;;;;;;;;21.56;37.19;95519.63;4999758;28;19922;-69
2023/08/14 07:08:54;;;;;;;;;;;;;;;21.15;37.21;95516.31;4995335;28;19925;-69
2023/08/14 07:11:19;;;;;;;;;;;;;;;21.34;36.99;95506.88;4997975;28;20025;-69
2023/08/14 07:13:45;;;;;;;;;;;;;;;21.71;36.58;95505.44;4999832;28;19993;-69
2023/08/14 07:16:10;;;;;;;;;;;;;;;21.83;35.99;95501.78;4999984;28;19960;-69
2023/08/14 07:18:35;;;;;;;;;;;;;;;21.98;36.15;95493.03;4998942;28;19921;-70
2023/08/14 07:21:00;;;;;;;;;;;;;;;21.99;36.00;95491.97;4997232;28;19965;-69
2023/08/14 07:23:26;;;;;;;;;;;;;;;22.03;34.90;95482.25;4999137;28;19922;-69
2023/08/14 07:25:51;;;;;;;;;;;;;;;22.12;35.35;95482.59;4992915;28;19925;-69
2023/08/14 07:28:17;;;;;;;;;;;;;;;22.40;35.24;95495.06;4999470;28;19967;-70
2023/08/14 07:30:42;;;;;;;;;;;;;;;21.82;34.95;95497.44;5000058;28;20447;-69
2023/08/14 07:33:07;;;;;;;;;;;;;;;22.22;35.64;95498.13;4999430;28;20357;-70
2023/08/14 07:35:33;;;;;;;;;;;;;;;22.32;35.44;95489.28;4999984;28;19917;-69
2023/08/14 07:37:58;;;;;;;;;;;;;;;22.57;34.59;95486.00;4999234;28;20430;-70
2023/08/14 07:40:23;;;;;;;;;;;;;;;22.83;34.45;95488.91;4996752;28;19925;-68
2023/08/14 07:42:49;;;;;;;;;;;;;;;23.20;35.10;95491.88;4999837;28;19918;-70
2023/08/14 07:45:14;;;;;;;;;;;;;;;23.25;33.98;95487.31;4998067;28;19922;-70
2023/08/14 07:47:39;;;;;;;;;;;;;;;23.55;33.61;95474.13;4998707;28;19926;-69
2023/08/14 07:50:05;;;;;;;;;;;;;;;23.68;33.12;95484.53;4995179;28;20020;-69
2023/08/14 07:52:30;;;;;;;;;;;;;;;23.89;32.96;95468.28;4998394;28;19929;-70
2023/08/14 07:54:57;;;;;;;;;;;;;;;23.96;32.96;95470.75;4998213;28;20059;-70
2023/08/14 07:57:22;;;;;;;;;;;;;;;24.17;32.84;95479.75;4995918;28;20008;-70
2023/08/14 07:59:47;;;;;;;;;;;;;;;24.41;32.49;95481.19;4992662;28;20509;-69
2023/08/14 08:02:12;;;;;;;;;;;;;;;24.65;32.08;95483.38;4989848;28;20098;-70
2023/08/14 08:04:38;;;;;;;;;;;;;;;23.59;32.26;95501.59;4998594;28;19935;-70
2023/08/14 08:07:03;;;;;;;;;;;;;;;23.14;33.52;95519.00;4994228;28;20019;-70
2023/08/14 08:09:29;;;;;;;;;;;;;;;22.64;34.58;95521.88;4995109;28;19925;-71
2023/08/14 08:11:54;;;;;;;;;;;;;;;23.32;33.71;95522.38;4994118;28;19925;-70
2023/08/14 08:14:19;;;;;;;;;;;;;;;23.51;33.53;95522.75;4995559;28;19940;-72
2023/08/14 08:16:44;;;;;;;;;;;;;;;24.45;32.21;95523.88;4996298;28;19925;-70
2023/08/14 08:19:09;;;;;;;;;;;;;;;24.80;30.84;95532.34;4998603;28;19925;-70
2023/08/14 08:21:36;;;;;;;;;;;;;;;24.98;30.16;95523.94;4996446;28;20024;-70
2023/08/14 08:24:01;;;;;;;;;;;;;;;23.71;31.69;95528.53;4998337;28;20705;-70
2023/08/14 08:26:27;;;;;;;;;;;;;;;24.35;31.99;95532.06;4999210;28;19918;-70
2023/08/14 08:28:52;;;;;;;;;;;;;;;23.30;34.04;95547.09;4998651;28;19961;-71
2023/08/14 08:31:17;;;;;;;;;;;;;;;25.06;31.11;95539.72;4995365;28;19974;-71
2023/08/14 08:33:42;;;;;;;;;;;;;;;25.31;30.46;95546.22;4998132;28;19976;-71
2023/08/14 08:36:08;;;;;;;;;;;;;;;24.19;31.77;95539.31;4998733;28;20196;-72
2023/08/14 08:38:33;;;;;;;;;;;;;;;24.81;31.69;95535.91;4997795;28;19925;-70
2023/08/14 08:40:59;;;;;;;;;;;;;;;25.39;30.53;95537.47;4997494;28;19921;-73
2023/08/14 08:43:24;;;;;;;;;;;;;;;25.43;30.82;95529.56;4998848;28;20327;-72
2023/08/14 08:45:50;;;;;;;;;;;;;;;25.53;30.71;95532.28;4996578;28;19975;-70
2023/08/14 08:48:16;;;;;;;;;;;;;;;24.32;32.41;95527.13;4991462;28;20575;-70
2023/08/14 08:50:42;;;;;;;;;;;;;;;24.78;32.37;95522.84;4991745;28;19968;-70
2023/08/14 08:53:07;;;;;;;;;;;;;;;23.76;33.23;95523.97;4990376;28;20523;-71
2023/08/14 08:55:32;;;;;;;;;;;;;;;24.89;31.77;95524.47;4997596;28;19922;-72
2023/08/14 08:57:58;;;;;;;;;;;;;;;25.16;31.37;95525.28;4994720;28;20191;-70
2023/08/14 09:00:23;;;;;;;;;;;;;;;25.44;31.63;95529.31;4995566;28;20104;-70
2023/08/14 09:02:48;;;;;;;;;;;;;;;25.57;31.61;95535.28;4996957;28;20622;-70
2023/08/14 09:05:14;;;;;;;;;;;;;;;25.31;31.38;95540.75;4996648;28;19972;-70
2023/08/14 09:07:39;;;;;;;;;;;;;;;24.91;32.13;95546.00;4996985;28;19924;-71
2023/08/14 09:10:05;;;;;;;;;;;;;;;24.90;31.62;95547.91;4995610;28;20027;-71
2023/08/14 09:12:30;;;;;;;;;;;;;;;24.94;32.40;95540.81;4995212;28;20591;-70
2023/08/14 09:15:05;;;;;;;;;;;;;;;25.01;31.70;95550.63;4995981;28;20039;-71
2023/08/14 09:17:30;;;;;;;;;;;;;;;25.17;31.28;95540.50;4993574;28;20417;-73
2023/08/14 09:19:56;;;;;;;;;;;;;;;25.37;33.04;95545.13;4995088;28;19921;-70
2023/08/14 09:22:21;;;;;;;;;;;;;;;25.42;32.67;95542.38;4993350;28;19925;-71
2023/08/14 09:24:50;;;;;;;;;;;;;;;25.41;32.71;95543.47;4993907;28;19935;-70
2023/08/14 09:27:15;;;;;;;;;;;;;;;25.29;31.17;95543.75;4993014;28;20555;-71
2023/08/14 09:29:40;;;;;;;;;;;;;;;25.61;32.26;95547.25;4991776;28;19933;-70
2023/08/14 09:32:06;;;;;;;;;;;;;;;25.86;30.40;95540.06;4993997;28;20422;-70
2023/08/14 09:34:31;;;;;;;;;;;;;;;26.07;31.37;95532.63;4993083;28;19925;-70
2023/08/14 09:36:57;;;;;;;;;;;;;;;26.07;30.40;95532.63;4991635;28;19964;-71
2023/08/14 09:39:23;;;;;;;;;;;;;;;26.14;30.25;95526.91;4995173;28;20025;-70
2023/08/14 09:41:48;;;;;;;;;;;;;;;25.87;31.21;95533.53;4995607;28;19921;-71
2023/08/14 09:44:14;;;;;;;;;;;;;;;25.99;31.23;95528.56;4995467;28;20706;-72
2023/08/14 09:46:39;;;;;;;;;;;;;;;26.10;30.52;95531.25;4997208;28;19948;-71
2023/08/14 09:49:05;;;;;;;;;;;;;;;26.10;32.41;95537.53;4986865;28;20405;-70
2023/08/14 09:51:30;;;;;;;;;;;;;;;25.70;31.31;95542.84;4989284;28;20676;-70
2023/08/14 09:53:59;;;;;;;;;;;;;;;25.92;31.08;95529.97;4993060;28;19926;-70
2023/08/14 09:56:24;;;;;;;;;;;;;;;26.44;31.21;95525.06;4994672;28;19926;-70
2023/08/14 09:58:50;;;;;;;;;;;;;;;26.77;31.09;95523.75;4992555;28;20603;-71
2023/08/14 10:01:15;;;;;;;;;;;;;;;26.72;30.38;95522.69;4988951;28;19965;-70
2023/08/14 10:03:41;;;;;;;;;;;;;;;27.12;31.28;95524.56;4992533;28;19929;-70
2023/08/14 10:06:07;;;;;;;;;;;;;;;26.97;30.57;95531.78;4984257;28;20536;-70
2023/08/14 10:08:33;;;;;;;;;;;;;;;26.83;31.02;95522.63;4993498;28;19930;-71
2023/08/14 10:10:58;;;;;;;;;;;;;;;26.82;31.30;95519.06;4994163;28;20130;-71
2023/08/14 10:13:25;;;;;;;;;;;;;;;26.57;31.70;95523.63;4995514;28;19925;-71
2023/08/14 10:15:50;;;;;;;;;;;;;;;26.77;30.85;95521.84;4996980;28;20033;-71
2023/08/14 10:18:16;;;;;;;;;;;;;;;26.51;29.94;95530.19;4992876;28;20321;-71
2023/08/14 10:20:41;;;;;;;;;;;;;;;26.83;30.85;95534.38;4993222;28;19926;-71
2023/08/14 10:23:07;;;;;;;;;;;;;;;26.48;31.72;95530.78;4994405;28;19984;-71
2023/08/14 10:25:34;;;;;;;;;;;;;;;26.70;30.52;95526.81;4992136;28;20595;-70
2023/08/14 10:27:59;;;;;;;;;;;;;;;26.84;31.09;95526.97;4994920;28;19967;-71
2023/08/14 10:30:25;;;;;;;;;;;;;;;27.26;30.57;95527.44;4993880;28;20133;-71
2023/08/14 10:32:50;;;;;;;;;;;;;;;26.18;31.62;95514.31;4995024;28;19925;-74
2023/08/14 10:35:15;;;;;;;;;;;;;;;26.96;31.94;95521.97;4987970;28;20291;-71
2023/08/14 10:37:41;;;;;;;;;;;;;;;26.88;31.20;95525.28;4994103;28;20484;-71
2023/08/14 10:40:19;;;;;;;;;;;;;;;27.72;29.74;95526.13;4993671;28;19917;-72
2023/08/14 10:42:50;;;;;;;;;;;;;;;28.12;28.96;95517.72;4993592;28;19933;-72
2023/08/14 10:45:16;;;;;;;;;;;;;;;28.74;28.04;95518.75;4988574;28;19929;-71
2023/08/14 10:47:42;;;;;;;;;;;;;;;28.93;27.49;95520.63;4990785;28;19929;-71
2023/08/14 10:50:13;;;;;;;;;;;;;;;29.02;27.92;95518.81;4990986;28;20476;-71
2023/08/14 10:52:39;;;;;;;;;;;;;;;29.23;27.97;95523.16;4992062;28;19999;-71
2023/08/14 10:55:04;;;;;;;;;;;;;;;28.73;28.36;95522.59;4995654;28;20382;-72
2023/08/14 10:57:30;;;;;;;;;;;;;;;28.09;29.64;95528.41;4991499;28;20327;-71
2023/08/14 10:59:55;;;;;;;;;;;;;;;28.12;29.72;95536.84;4994934;28;19921;-72
2023/08/14 11:02:21;;;;;;;;;;;;;;;27.98;29.87;95547.72;4994414;28;19979;-71
2023/08/14 11:04:58;;;;;;;;;;;;;;;28.35;30.06;95549.97;4992203;28;19935;-72
2023/08/14 11:07:32;;;;;;;;;;;;;;;28.47;29.90;95544.88;4993079;28;19931;-71
2023/08/14 11:09:58;;;;;;;;;;;;;;;28.37;30.33;95551.31;4994291;28;19925;-71
2023/08/14 11:12:23;;;;;;;;;;;;;;;28.11;29.93;95546.16;4994567;28;20516;-72
2023/08/14 11:14:48;;;;;;;;;;;;;;;26.95;31.06;95549.56;4994810;28;19918;-71
2023/08/14 11:17:13;;;;;;;;;;;;;;;26.34;33.33;95546.97;4990781;28;19952;-70
2023/08/14 11:19:39;;;;;;;;;;;;;;;25.20;35.57;95565.31;4994711;28;20415;-70
2023/08/14 11:22:04;;;;;;;;;;;;;;;26.08;33.45;95558.00;4992141;28;19928;-71
2023/08/14 11:24:29;;;;;;;;;;;;;;;26.11;33.31;95571.09;4994696;28;19918;-72
2023/08/14 11:26:56;;;;;;;;;;;;;;;25.83;34.71;95560.53;4994205;28;19929;-72
2023/08/14 11:29:22;;;;;;;;;;;;;;;25.85;33.65;95560.25;4991520;28;20142;-71
2023/08/14 11:31:48;;;;;;;;;;;;;;;25.84;33.76;95572.25;4995071;28;20024;-72
2023/08/14 11:34:13;;;;;;;;;;;;;;;25.66;33.74;95573.69;4992191;28;20109;-71
2023/08/14 11:36:39;;;;;;;;;;;;;;;25.38;34.42;95573.97;4993782;28;19960;-70
2023/08/14 11:39:04;;;;;;;;;;;;;;;25.69;34.20;95571.22;4995258;28;20036;-69
2023/08/14 11:41:32;;;;;;;;;;;;;;;25.71;33.95;95577.22;4995305;28;19973;-69
2023/08/14 11:43:57;;;;;;;;;;;;;;;25.82;33.64;95566.25;4993417;28;19922;-69
2023/08/14 11:46:23;;;;;;;;;;;;;;;25.90;33.61;95565.69;4998415;28;19922;-69
2023/08/14 11:48:48;;;;;;;;;;;;;;;25.18;35.75;95566.66;4994265;28;20436;-69
2023/08/14 11:51:14;;;;;;;;;;;;;;;25.16;35.69;95575.13;4993476;28;19968;-69
2023/08/14 11:53:39;;;;;;;;;;;;;;;25.37;35.06;95587.88;4994924;28;20656;-69
2023/08/14 11:56:04;;;;;;;;;;;;;;;25.50;35.58;95583.81;4994682;28;19936;-69
2023/08/14 11:58:31;;;;;;;;;;;;;;;25.64;35.06;95593.03;4996159;28;19917;-71
2023/08/14 12:00:56;;;;;;;;;;;;;;;25.89;34.00;95588.59;4997551;28;20390;-69
2023/08/14 12:03:21;;;;;;;;;;;;;;;25.98;34.62;95589.66;4997617;28;20579;-70
2023/08/14 12:05:47;;;;;;;;;;;;;;;26.30;34.11;95590.34;4995907;28;20113;-71
2023/08/14 12:08:12;;;;;;;;;;;;;;;25.75;35.08;95585.66;4974666;28;19956;-70
2023/08/14 12:10:38;;;;;;;;;;;;;;;25.77;35.19;95585.38;4996653;28;19922;-70
2023/08/14 12:13:03;;;;;;;;;;;;;;;26.35;34.38;95578.59;4997021;28;19932;-70
2023/08/14 12:15:29;;;;;;;;;;;;;;;26.36;33.75;95586.50;4995994;28;19925;-69
2023/08/14 12:17:54;;;;;;;;;;;;;;;26.61;33.54;95589.38;4994843;28;19932;-70
2023/08/14 12:20:20;;;;;;;;;;;;;;;26.50;33.68;95578.50;4995960;28;19925;-70
2023/08/14 12:22:45;;;;;;;;;;;;;;;25.75;35.29;95574.75;4995109;28;20234;-70
2023/08/14 12:25:11;;;;;;;;;;;;;;;24.79;37.06;95568.00;4996647;28;20196;-70
2023/08/14 12:27:36;;;;;;;;;;;;;;;23.63;39.43;95574.16;4994979;28;20181;-70
2023/08/14 12:30:02;;;;;;;;;;;;;;;25.06;35.46;95569.66;4996786;28;19932;-70
2023/08/14 12:32:27;;;;;;;;;;;;;;;25.20;35.60;95557.13;4996440;28;19968;-70
2023/08/14 12:34:53;;;;;;;;;;;;;;;25.33;35.76;95542.13;4996857;28;20081;-69
2023/08/14 12:37:18;;;;;;;;;;;;;;;25.80;35.06;95538.47;4996175;28;20004;-70
2023/08/14 12:39:44;;;;;;;;;;;;;;;25.11;35.42;95530.75;4997170;28;19949;-70